Time;durP1;ratioP1;P1;durP2;ratioP2;P2;SDS_P1;SDS_P2;PMS_P1;PMS_P2;Temp;Humidity;BMP_temperature;BMP_pressure;BME280_temperature;BME280_humidity;BME280_pressure;Samples;Min_cycle;Max_cycle;Signal;HPM_P1;HPM_P2
2022/04/24 00:04:21;;;;;;;4.72;3.42;;;;;;;;;;12657734;23;20284;-73
2022/04/24 00:09:22;;;;;;;3.63;3.50;;;;;;;;;;12660621;23;20188;-69
2022/04/24 00:14:23;;;;;;;3.80;3.60;;;;;;;;;;12660110;23;20189;-72
2022/04/24 00:19:24;;;;;;;3.88;3.55;;;;;;;;;;12634760;23;20619;-73
2022/04/24 00:24:25;;;;;;;3.50;3.40;;;;;;;;;;12659157;23;20243;-73
2022/04/24 00:29:26;;;;;;;3.42;3.13;;;;;;;;;;12635040;23;20177;-72
2022/04/24 00:34:28;;;;;;;3.42;3.22;;;;;;;;;;12661367;23;20201;-73
2022/04/24 00:39:29;;;;;;;5.05;3.35;;;;;;;;;;12661804;23;20986;-72
2022/04/24 00:44:33;;;;;;;3.03;2.88;;;;;;;;;;12660163;23;20598;-73
2022/04/24 00:50:01;;;;;;;3.17;2.97;;;;;;;;;;12615499;23;20240;-73
2022/04/24 00:55:02;;;;;;;3.22;3.10;;;;;;;;;;12661869;23;20185;-74
2022/04/24 01:00:04;;;;;;;4.40;4.03;;;;;;;;;;12659998;23;20713;-74
2022/04/24 01:05:06;;;;;;;3.20;3.10;;;;;;;;;;12661242;23;20201;-74
2022/04/24 01:10:08;;;;;;;3.55;2.95;;;;;;;;;;12633797;23;20181;-74
2022/04/24 01:15:09;;;;;;;3.75;3.50;;;;;;;;;;12658695;23;20189;-74
2022/04/24 01:20:11;;;;;;;3.80;3.60;;;;;;;;;;12659464;23;20212;-73
2022/04/24 01:25:14;;;;;;;4.45;4.05;;;;;;;;;;12660488;23;20272;-73
2022/04/24 01:30:15;;;;;;;4.28;3.88;;;;;;;;;;12661283;23;20622;-72
2022/04/24 01:35:18;;;;;;;3.72;3.50;;;;;;;;;;12661395;23;20183;-72
2022/04/24 01:40:20;;;;;;;5.25;3.58;;;;;;;;;;12634735;23;20255;-73
2022/04/24 01:45:21;;;;;;;4.22;3.67;;;;;;;;;;12658791;23;20207;-73
2022/04/24 01:50:22;;;;;;;7.40;3.55;;;;;;;;;;12660925;23;20184;-71
2022/04/24 01:55:23;;;;;;;4.00;3.70;;;;;;;;;;12660987;23;20184;-73
2022/04/24 02:00:24;;;;;;;4.63;3.80;;;;;;;;;;12660479;23;20197;-72
2022/04/24 02:05:25;;;;;;;4.00;3.63;;;;;;;;;;12634629;23;20188;-73
2022/04/24 02:10:26;;;;;;;4.25;4.00;;;;;;;;;;12659082;23;20890;-73
2022/04/24 02:15:28;;;;;;;4.18;3.90;;;;;;;;;;12661635;23;20236;-73
2022/04/24 02:20:29;;;;;;;4.45;3.70;;;;;;;;;;12659683;23;20507;-72
2022/04/24 02:25:32;;;;;;;4.57;4.30;;;;;;;;;;12661260;23;20187;-73
2022/04/24 02:30:33;;;;;;;6.65;3.83;;;;;;;;;;12633543;23;20193;-73
2022/04/24 02:35:34;;;;;;;6.05;3.53;;;;;;;;;;12659623;23;20235;-74
2022/04/24 02:40:35;;;;;;;6.57;3.97;;;;;;;;;;12631249;23;20252;-73
2022/04/24 02:45:36;;;;;;;4.28;3.97;;;;;;;;;;12596819;23;20186;-73
2022/04/24 02:50:39;;;;;;;4.68;4.28;;;;;;;;;;12596451;23;20240;-73
2022/04/24 02:55:40;;;;;;;4.07;3.80;;;;;;;;;;12596520;23;20249;-73
2022/04/24 03:00:49;;;;;;;5.78;3.97;;;;;;;;;;12595030;23;20279;-73
2022/04/24 03:05:50;;;;;;;3.88;3.65;;;;;;;;;;12597460;23;20173;-73
2022/04/24 03:10:51;;;;;;;3.92;3.63;;;;;;;;;;12585425;23;20185;-73
2022/04/24 03:15:53;;;;;;;3.90;3.70;;;;;;;;;;12597379;23;20196;-73
2022/04/24 03:20:54;;;;;;;5.07;4.07;;;;;;;;;;12596172;23;20563;-73
2022/04/24 03:25:55;;;;;;;4.18;3.78;;;;;;;;;;12595960;23;20326;-74
2022/04/24 03:30:56;;;;;;;4.97;3.92;;;;;;;;;;12594756;23;20208;-73
2022/04/24 03:35:57;;;;;;;4.65;4.22;;;;;;;;;;12595353;23;20192;-73
2022/04/24 03:40:59;;;;;;;6.65;4.28;;;;;;;;;;12588058;23;20236;-74
2022/04/24 03:46:00;;;;;;;4.90;3.80;;;;;;;;;;12660096;23;20259;-73
2022/04/24 03:51:01;;;;;;;5.18;4.13;;;;;;;;;;12657689;23;20560;-73
2022/04/24 03:56:03;;;;;;;5.90;4.35;;;;;;;;;;12660160;23;20192;-74
2022/04/24 04:01:04;;;;;;;4.20;4.00;;;;;;;;;;12657234;23;20305;-74
2022/04/24 04:06:05;;;;;;;7.38;4.22;;;;;;;;;;12661012;23;20189;-73
2022/04/24 04:11:07;;;;;;;6.22;4.38;;;;;;;;;;12662184;23;20363;-73
2022/04/24 04:16:08;;;;;;;4.78;4.30;;;;;;;;;;12661869;23;20528;-74
2022/04/24 04:21:09;;;;;;;6.40;4.15;;;;;;;;;;12660986;23;20279;-73
2022/04/24 04:26:10;;;;;;;6.68;4.78;;;;;;;;;;12661260;23;20192;-73
2022/04/24 04:31:12;;;;;;;4.60;4.22;;;;;;;;;;12662075;23;20200;-73
2022/04/24 04:36:13;;;;;;;4.88;4.38;;;;;;;;;;12663068;23;20263;-71
2022/04/24 04:41:14;;;;;;;7.85;4.60;;;;;;;;;;12661323;23;20271;-73
2022/04/24 04:46:15;;;;;;;4.32;4.00;;;;;;;;;;12661242;23;20252;-73
2022/04/24 04:51:16;;;;;;;4.72;4.20;;;;;;;;;;12661333;23;20177;-73
2022/04/24 04:56:17;;;;;;;5.15;3.60;;;;;;;;;;12661063;23;20176;-73
2022/04/24 05:01:18;;;;;;;5.88;4.35;;;;;;;;;;12660444;23;20256;-72
2022/04/24 05:06:21;;;;;;;4.78;4.28;;;;;;;;;;12662539;23;20193;-73
2022/04/24 05:11:22;;;;;;;4.72;4.28;;;;;;;;;;12661451;23;20189;-72
2022/04/24 05:16:23;;;;;;;5.72;3.97;;;;;;;;;;12661233;23;20555;-73
2022/04/24 05:21:25;;;;;;;4.75;3.85;;;;;;;;;;12661101;23;20650;-74
2022/04/24 05:26:26;;;;;;;4.45;4.15;;;;;;;;;;12658849;23;20192;-73
2022/04/24 05:31:27;;;;;;;4.05;3.75;;;;;;;;;;12655142;23;20255;-73
2022/04/24 05:36:28;;;;;;;5.43;3.45;;;;;;;;;;12656867;23;20181;-74
2022/04/24 05:41:29;;;;;;;8.23;4.32;;;;;;;;;;12662071;23;20199;-73
2022/04/24 05:46:30;;;;;;;4.65;4.25;;;;;;;;;;12661443;23;20216;-73
2022/04/24 05:51:31;;;;;;;5.07;3.90;;;;;;;;;;12661947;23;20257;-72
2022/04/24 05:56:32;;;;;;;6.88;3.85;;;;;;;;;;12635211;23;20216;-73
2022/04/24 06:01:33;;;;;;;5.03;4.43;;;;;;;;;;12635028;23;20265;-74
2022/04/24 06:06:34;;;;;;;4.15;3.85;;;;;;;;;;12661797;23;20187;-73
2022/04/24 06:11:37;;;;;;;4.45;3.65;;;;;;;;;;12659918;23;20181;-74
2022/04/24 06:16:38;;;;;;;9.10;4.35;;;;;;;;;;12660192;23;20173;-73
2022/04/24 06:21:39;;;;;;;5.30;4.05;;;;;;;;;;12658461;23;20493;-73
2022/04/24 06:26:43;;;;;;;4.13;3.58;;;;;;;;;;12630929;23;20189;-73
2022/04/24 06:31:44;;;;;;;6.85;3.88;;;;;;;;;;12628873;23;20201;-74
2022/04/24 06:36:45;;;;;;;4.75;4.32;;;;;;;;;;12653027;23;20213;-74
2022/04/24 06:41:46;;;;;;;4.75;4.35;;;;;;;;;;12654394;23;20193;-74
2022/04/24 06:46:50;;;;;;;5.07;4.63;;;;;;;;;;12626677;23;20247;-73
2022/04/24 06:51:51;;;;;;;4.75;4.32;;;;;;;;;;12655620;23;20755;-72
2022/04/24 06:56:52;;;;;;;5.10;4.60;;;;;;;;;;12628350;23;20257;-72
2022/04/24 07:01:53;;;;;;;9.02;4.40;;;;;;;;;;12653064;23;20212;-74
2022/04/24 07:06:54;;;;;;;5.55;5.00;;;;;;;;;;12656667;23;20656;-73
2022/04/24 07:11:55;;;;;;;6.90;4.75;;;;;;;;;;12653402;23;20181;-73
2022/04/24 07:16:56;;;;;;;5.35;4.85;;;;;;;;;;12653542;23;20192;-73
2022/04/24 07:21:58;;;;;;;7.20;4.85;;;;;;;;;;12657786;23;20200;-72
2022/04/24 07:26:59;;;;;;;4.50;4.10;;;;;;;;;;12633244;23;20204;-71
2022/04/24 07:32:00;;;;;;;4.57;4.15;;;;;;;;;;12658513;23;20200;-73
2022/04/24 07:37:02;;;;;;;4.90;4.60;;;;;;;;;;12658830;23;20181;-72
2022/04/24 07:42:03;;;;;;;5.25;4.75;;;;;;;;;;12659987;23;20259;-72
2022/04/24 07:47:04;;;;;;;4.65;4.35;;;;;;;;;;12663823;23;20235;-72
2022/04/24 07:52:05;;;;;;;5.90;5.40;;;;;;;;;;12660649;23;20181;-73
2022/04/24 07:57:06;;;;;;;6.65;5.93;;;;;;;;;;12660408;23;20181;-72
2022/04/24 08:02:07;;;;;;;6.30;5.53;;;;;;;;;;12656711;23;20298;-71
2022/04/24 08:07:09;;;;;;;6.57;5.88;;;;;;;;;;12655603;23;20184;-72
2022/04/24 08:12:10;;;;;;;6.32;5.78;;;;;;;;;;12662012;23;20235;-70
2022/04/24 08:17:11;;;;;;;6.30;5.55;;;;;;;;;;12635959;23;21058;-71
2022/04/24 08:22:12;;;;;;;5.72;5.20;;;;;;;;;;12662041;23;20204;-71
2022/04/24 08:27:13;;;;;;;6.10;5.60;;;;;;;;;;12660748;23;20191;-71
2022/04/24 08:32:15;;;;;;;6.78;6.18;;;;;;;;;;12630077;23;20207;-71
2022/04/24 08:37:16;;;;;;;6.25;5.75;;;;;;;;;;12657408;23;20172;-69
2022/04/24 08:42:21;;;;;;;6.90;6.20;;;;;;;;;;12657762;23;20281;-71
2022/04/24 08:47:24;;;;;;;6.65;5.95;;;;;;;;;;12660183;23;20204;-70
2022/04/24 08:52:25;;;;;;;7.25;6.03;;;;;;;;;;12660967;23;20216;-70
2022/04/24 08:57:27;;;;;;;6.80;5.78;;;;;;;;;;12661611;23;20184;-70
2022/04/24 09:02:28;;;;;;;6.38;5.97;;;;;;;;;;12659070;23;20212;-70
2022/04/24 09:07:32;;;;;;;6.35;5.80;;;;;;;;;;12661455;23;20287;-70
2022/04/24 09:12:34;;;;;;;6.45;6.05;;;;;;;;;;12656624;23;20244;-70
2022/04/24 09:17:35;;;;;;;7.55;6.80;;;;;;;;;;12659557;23;20205;-70
2022/04/24 09:22:38;;;;;;;7.03;6.53;;;;;;;;;;12655783;23;20224;-70
2022/04/24 09:27:39;;;;;;;7.18;6.57;;;;;;;;;;12658041;23;20185;-71
2022/04/24 09:32:48;;;;;;;7.32;6.63;;;;;;;;;;12659797;23;20592;-71
2022/04/24 09:37:49;;;;;;;7.00;6.45;;;;;;;;;;12660131;23;20236;-70
2022/04/24 09:42:54;;;;;;;7.32;6.53;;;;;;;;;;12659150;23;20199;-70
2022/04/24 09:47:58;;;;;;;7.28;6.57;;;;;;;;;;12659483;23;20228;-70
2022/04/24 09:53:00;;;;;;;6.85;6.25;;;;;;;;;;12657734;23;20181;-70
2022/04/24 09:58:02;;;;;;;7.45;6.80;;;;;;;;;;12658018;23;20208;-70
2022/04/24 10:03:03;;;;;;;6.88;6.22;;;;;;;;;;12658228;23;20528;-70
2022/04/24 10:08:06;;;;;;;6.65;6.00;;;;;;;;;;12632679;23;20683;-68
2022/04/24 10:13:08;;;;;;;7.15;6.43;;;;;;;;;;12658317;23;20573;-70
2022/04/24 10:18:17;;;;;;;6.97;6.53;;;;;;;;;;12657899;23;20255;-70
2022/04/24 10:23:28;;;;;;;6.28;5.78;;;;;;;;;;12656728;23;20188;-68
2022/04/24 10:28:37;;;;;;;6.50;6.00;;;;;;;;;;12657445;23;20203;-69
2022/04/24 10:33:39;;;;;;;7.32;6.57;;;;;;;;;;12657415;23;20201;-69
2022/04/24 10:38:51;;;;;;;5.95;5.45;;;;;;;;;;12658548;23;20172;-69
2022/04/24 10:43:59;;;;;;;6.32;5.93;;;;;;;;;;12653055;23;20836;-69
2022/04/24 10:49:26;;;;;;;6.53;6.03;;;;;;;;;;12652713;23;20189;-69
2022/04/24 10:54:38;;;;;;;6.03;5.72;;;;;;;;;;12647441;23;20185;-68
2022/04/24 10:59:52;;;;;;;5.53;5.22;;;;;;;;;;12656700;23;20184;-69
2022/04/24 11:05:04;;;;;;;5.70;5.40;;;;;;;;;;12655799;23;20196;-68
2022/04/24 11:10:06;;;;;;;8.05;6.45;;;;;;;;;;12656876;23;20653;-69
2022/04/24 11:15:09;;;;;;;5.43;5.00;;;;;;;;;;12656639;23;20181;-69
2022/04/24 11:20:13;;;;;;;5.43;5.03;;;;;;;;;;12658347;23;20189;-68
2022/04/24 11:25:15;;;;;;;5.85;5.55;;;;;;;;;;12659304;23;20219;-68
2022/04/24 11:30:20;;;;;;;6.75;6.18;;;;;;;;;;12658264;23;20184;-67
2022/04/24 11:35:22;;;;;;;5.32;4.80;;;;;;;;;;12658577;23;20191;-69
2022/04/24 11:40:23;;;;;;;5.75;5.35;;;;;;;;;;12657924;23;20315;-68
2022/04/24 11:50:51;;;;;;;5.13;4.82;;;;;;;;;;12635154;23;20271;-68
2022/04/24 11:56:02;;;;;;;4.95;4.60;;;;;;;;;;12661726;23;20195;-68
2022/04/24 12:01:04;;;;;;;4.72;4.57;;;;;;;;;;12660499;23;20259;-69
2022/04/24 12:06:06;;;;;;;5.00;4.78;;;;;;;;;;12661165;23;20255;-70
2022/04/24 12:11:07;;;;;;;4.80;4.53;;;;;;;;;;12661148;23;20201;-69
2022/04/24 12:16:08;;;;;;;4.80;4.50;;;;;;;;;;12660967;23;20307;-68
2022/04/24 12:21:19;;;;;;;4.65;4.35;;;;;;;;;;12660265;23;20256;-69
2022/04/24 12:26:20;;;;;;;5.18;4.88;;;;;;;;;;12662959;23;20196;-69
2022/04/24 12:31:25;;;;;;;5.38;4.72;;;;;;;;;;12636692;23;20561;-69
2022/04/24 12:36:26;;;;;;;5.95;4.78;;;;;;;;;;12664600;23;20211;-70
2022/04/24 12:41:28;;;;;;;4.68;4.30;;;;;;;;;;12663668;23;20272;-70
2022/04/24 12:46:29;;;;;;;4.90;4.60;;;;;;;;;;12664824;23;20192;-69
2022/04/24 12:51:30;;;;;;;4.82;4.50;;;;;;;;;;12664730;23;20192;-70
2022/04/24 12:56:34;;;;;;;5.22;4.85;;;;;;;;;;12663553;23;20687;-70
2022/04/24 13:01:35;;;;;;;4.80;4.50;;;;;;;;;;12663062;23;20220;-69
2022/04/24 13:06:36;;;;;;;5.30;4.80;;;;;;;;;;12664094;23;20771;-69
2022/04/24 13:11:38;;;;;;;5.30;4.88;;;;;;;;;;12663923;23;20697;-70
2022/04/24 13:21:59;;;;;;;6.70;4.28;;;;;;;;;;12663064;23;20200;-70
2022/04/24 13:27:01;;;;;;;5.15;4.65;;;;;;;;;;12664020;23;20216;-69
2022/04/24 13:32:03;;;;;;;4.57;4.13;;;;;;;;;;12662512;23;20200;-70
2022/04/24 13:42:25;;;;;;;4.30;4.10;;;;;;;;;;12661566;23;20219;-70
2022/04/24 13:47:26;;;;;;;4.30;4.00;;;;;;;;;;12662492;23;20193;-70
2022/04/24 13:52:27;;;;;;;4.63;4.30;;;;;;;;;;12658735;23;20268;-71
2022/04/24 13:57:28;;;;;;;9.90;4.28;;;;;;;;;;12662140;23;20185;-70
2022/04/24 14:02:29;;;;;;;4.78;3.95;;;;;;;;;;12656999;23;20215;-70
2022/04/24 14:07:31;;;;;;;4.13;3.50;;;;;;;;;;12655685;23;20498;-69
2022/04/24 14:12:32;;;;;;;7.78;3.65;;;;;;;;;;12659466;23;20184;-70
2022/04/24 14:17:33;;;;;;;3.40;3.20;;;;;;;;;;12656970;23;20263;-70
2022/04/24 14:22:34;;;;;;;3.40;3.08;;;;;;;;;;12657138;23;20200;-69
2022/04/24 14:27:36;;;;;;;3.72;3.40;;;;;;;;;;12658954;23;20173;-70
2022/04/24 14:32:41;;;;;;;3.67;3.38;;;;;;;;;;12656112;23;20205;-69
2022/04/24 14:37:42;;;;;;;3.55;3.25;;;;;;;;;;12659530;23;20185;-69
2022/04/24 14:42:44;;;;;;;4.13;3.80;;;;;;;;;;12657713;23;20204;-70
2022/04/24 14:58:26;;;;;;;4.18;3.63;;;;;;;;;;12660085;23;20177;-68
2022/04/24 15:03:27;;;;;;;3.35;2.80;;;;;;;;;;12658713;23;20601;-68
2022/04/24 15:08:28;;;;;;;3.28;2.95;;;;;;;;;;12655919;23;20725;-69
2022/04/24 15:13:32;;;;;;;6.38;2.70;;;;;;;;;;12657541;23;20264;-70
2022/04/24 15:18:33;;;;;;;3.05;2.95;;;;;;;;;;12658309;23;20324;-70
2022/04/24 15:23:39;;;;;;;6.57;2.90;;;;;;;;;;12657119;23;20737;-70
2022/04/24 15:28:40;;;;;;;3.15;2.85;;;;;;;;;;12657778;23;20180;-70
2022/04/24 15:33:41;;;;;;;2.40;2.30;;;;;;;;;;12659097;23;21194;-70
2022/04/24 15:38:42;;;;;;;3.00;2.90;;;;;;;;;;12659620;23;20236;-70
2022/04/24 15:43:44;;;;;;;3.60;3.20;;;;;;;;;;12656689;23;20235;-70
2022/04/24 15:48:45;;;;;;;4.22;3.30;;;;;;;;;;12655178;23;20185;-70
2022/04/24 15:53:46;;;;;;;2.75;2.60;;;;;;;;;;12660130;23;20572;-70
2022/04/24 15:58:47;;;;;;;3.00;2.80;;;;;;;;;;12659239;23;20185;-70
2022/04/24 16:03:48;;;;;;;3.10;2.90;;;;;;;;;;12661346;23;20249;-70
2022/04/24 16:08:50;;;;;;;2.78;2.58;;;;;;;;;;12660953;23;20282;-70
2022/04/24 16:13:51;;;;;;;2.25;2.15;;;;;;;;;;12660851;23;20183;-70
2022/04/24 16:18:52;;;;;;;3.17;2.90;;;;;;;;;;12659507;23;20177;-70
2022/04/24 16:23:53;;;;;;;2.70;2.45;;;;;;;;;;12661821;23;20561;-70
2022/04/24 16:28:54;;;;;;;2.20;2.10;;;;;;;;;;12663253;23;20213;-70
2022/04/24 16:33:56;;;;;;;4.07;2.30;;;;;;;;;;12660894;23;20196;-70
2022/04/24 16:38:57;;;;;;;3.72;2.35;;;;;;;;;;12662320;23;20177;-70
2022/04/24 16:43:58;;;;;;;4.60;2.30;;;;;;;;;;12662996;23;20778;-70
2022/04/24 16:48:59;;;;;;;3.95;2.42;;;;;;;;;;12662555;23;20587;-70
2022/04/24 16:59:20;;;;;;;2.28;2.17;;;;;;;;;;12662118;23;20180;-70
2022/04/24 17:04:22;;;;;;;2.30;2.20;;;;;;;;;;12660423;23;21038;-70
2022/04/24 17:09:24;;;;;;;2.03;1.92;;;;;;;;;;12663967;23;20643;-70
2022/04/24 17:14:26;;;;;;;4.35;2.10;;;;;;;;;;12660654;23;20228;-70
2022/04/24 17:19:27;;;;;;;2.13;2.03;;;;;;;;;;12659640;23;20185;-69
2022/04/24 17:24:28;;;;;;;2.72;2.33;;;;;;;;;;12660110;23;20276;-69
2022/04/24 17:29:29;;;;;;;3.50;2.13;;;;;;;;;;12660577;23;20564;-70
2022/04/24 17:34:31;;;;;;;3.30;2.08;;;;;;;;;;12657147;23;20232;-70
2022/04/24 17:39:32;;;;;;;2.28;2.17;;;;;;;;;;12660036;23;20597;-70
2022/04/24 17:44:34;;;;;;;7.25;2.10;;;;;;;;;;12660924;23;20209;-70
2022/04/24 17:49:35;;;;;;;3.95;2.13;;;;;;;;;;12658946;23;20620;-70
2022/04/24 17:54:36;;;;;;;4.38;2.60;;;;;;;;;;12657684;23;20267;-70
2022/04/24 17:59:38;;;;;;;1.90;1.88;;;;;;;;;;12629668;23;20524;-67
2022/04/24 18:04:39;;;;;;;2.40;2.30;;;;;;;;;;12654509;23;21016;-66
2022/04/24 18:09:40;;;;;;;3.42;2.22;;;;;;;;;;12658340;23;20180;-67
2022/04/24 18:14:41;;;;;;;2.78;2.42;;;;;;;;;;12630972;23;20181;-67
2022/04/24 18:19:42;;;;;;;2.50;2.30;;;;;;;;;;12657055;23;20181;-68
2022/04/24 18:24:44;;;;;;;2.97;2.30;;;;;;;;;;12656382;23;20196;-70
2022/04/24 18:29:45;;;;;;;3.63;2.58;;;;;;;;;;12659199;23;20263;-68
2022/04/24 18:34:46;;;;;;;4.82;2.50;;;;;;;;;;12654385;23;20541;-68
2022/04/24 18:39:47;;;;;;;2.10;2.00;;;;;;;;;;12656263;23;20188;-68
2022/04/24 18:44:48;;;;;;;2.50;2.30;;;;;;;;;;12655980;23;20564;-69
2022/04/24 18:49:50;;;;;;;2.58;2.45;;;;;;;;;;12654558;23;20181;-68
2022/04/24 18:54:52;;;;;;;5.80;2.50;;;;;;;;;;12652176;23;20264;-69
2022/04/24 18:59:53;;;;;;;2.40;2.17;;;;;;;;;;12652291;23;20189;-68
2022/04/24 19:15:35;;;;;;;3.72;2.58;;;;;;;;;;12624806;23;20195;-68
2022/04/24 19:20:39;;;;;;;2.60;2.50;;;;;;;;;;12652161;23;20630;-69
2022/04/24 19:25:40;;;;;;;2.40;2.28;;;;;;;;;;12652177;23;20271;-68
2022/04/24 19:30:42;;;;;;;3.72;2.72;;;;;;;;;;12650890;23;20200;-70
2022/04/24 19:35:43;;;;;;;4.15;2.75;;;;;;;;;;12656315;23;20184;-70
2022/04/24 19:40:44;;;;;;;5.18;3.47;;;;;;;;;;12655801;23;20549;-70
2022/04/24 19:45:47;;;;;;;3.28;3.00;;;;;;;;;;12598078;23;20208;-70
2022/04/24 19:50:48;;;;;;;4.32;3.55;;;;;;;;;;12598380;23;20233;-70
2022/04/24 19:55:52;;;;;;;7.00;3.50;;;;;;;;;;12596666;23;20192;-70
2022/04/24 20:00:56;;;;;;;3.85;3.42;;;;;;;;;;12596015;23;20311;-70
2022/04/24 20:05:57;;;;;;;6.75;4.45;;;;;;;;;;12584468;23;20268;-70
2022/04/24 20:10:58;;;;;;;4.32;3.92;;;;;;;;;;12594459;23;20575;-70
2022/04/24 20:15:59;;;;;;;4.72;4.30;;;;;;;;;;12594502;23;20213;-69
2022/04/24 20:21:00;;;;;;;5.30;4.45;;;;;;;;;;12594901;23;20200;-70
2022/04/24 20:26:01;;;;;;;6.68;4.05;;;;;;;;;;12599277;23;20741;-70
2022/04/24 20:31:04;;;;;;;5.22;3.67;;;;;;;;;;12586795;23;20656;-70
2022/04/24 20:36:08;;;;;;;4.30;4.00;;;;;;;;;;12599259;23;20237;-68
2022/04/24 20:41:10;;;;;;;11.32;4.90;;;;;;;;;;12608798;23;20215;-70
2022/04/24 20:46:11;;;;;;;10.40;3.90;;;;;;;;;;12659369;23;20173;-70
2022/04/24 20:51:13;;;;;;;8.90;4.40;;;;;;;;;;12658103;23;20177;-70
2022/04/24 20:56:14;;;;;;;4.80;4.38;;;;;;;;;;12660266;23;20212;-70
2022/04/24 21:01:16;;;;;;;7.78;3.83;;;;;;;;;;12660297;23;20225;-70
2022/04/24 21:06:17;;;;;;;5.38;3.90;;;;;;;;;;12661751;23;20255;-71
2022/04/24 21:11:18;;;;;;;5.57;3.97;;;;;;;;;;12659365;23;20208;-70
2022/04/24 21:16:19;;;;;;;5.22;3.78;;;;;;;;;;12657251;23;20574;-71
2022/04/24 21:21:20;;;;;;;5.00;4.40;;;;;;;;;;12660025;23;20571;-70
2022/04/24 21:26:21;;;;;;;6.90;4.72;;;;;;;;;;12660672;23;20244;-71
2022/04/24 21:31:22;;;;;;;6.95;5.40;;;;;;;;;;12658640;23;20197;-68
2022/04/24 21:36:23;;;;;;;8.23;4.90;;;;;;;;;;12658835;23;20488;-70
2022/04/24 21:41:24;;;;;;;5.18;4.57;;;;;;;;;;12658946;23;20216;-70
2022/04/24 21:46:25;;;;;;;7.72;5.20;;;;;;;;;;12658490;23;20180;-70
2022/04/24 21:51:26;;;;;;;10.20;5.55;;;;;;;;;;12659082;23;20185;-71
2022/04/24 21:56:27;;;;;;;8.65;5.63;;;;;;;;;;12658441;23;20626;-70
2022/04/24 22:06:50;;;;;;;8.70;5.97;;;;;;;;;;12657090;23;20219;-71
2022/04/24 22:11:51;;;;;;;14.50;5.97;;;;;;;;;;12658128;23;20177;-74
2022/04/24 22:16:52;;;;;;;6.25;5.72;;;;;;;;;;12658730;23;20173;-74
2022/04/24 22:27:14;;;;;;;13.27;6.35;;;;;;;;;;12659201;23;20305;-72
2022/04/24 22:32:15;;;;;;;10.45;6.50;;;;;;;;;;12632363;23;21051;-72
2022/04/24 22:37:16;;;;;;;10.13;6.45;;;;;;;;;;12656004;23;20188;-72
2022/04/24 22:42:17;;;;;;;11.98;6.78;;;;;;;;;;12656591;23;20706;-72
2022/04/24 22:47:18;;;;;;;10.38;7.03;;;;;;;;;;12658003;23;20184;-70
2022/04/24 22:52:19;;;;;;;11.05;7.10;;;;;;;;;;12660236;23;20755;-72
2022/04/24 22:57:20;;;;;;;12.73;8.07;;;;;;;;;;12658346;23;20189;-70
2022/04/24 23:02:21;;;;;;;10.27;6.93;;;;;;;;;;12657882;23;20209;-71
2022/04/24 23:07:22;;;;;;;12.10;6.78;;;;;;;;;;12658736;23;20205;-70
2022/04/24 23:12:24;;;;;;;9.40;7.60;;;;;;;;;;12657153;23;20236;-71
2022/04/24 23:19:12;;;;;;;13.55;8.13;;;;;;;;;;12661351;23;20191;-71
2022/04/24 23:22:46;;;;;;;14.35;9.35;;;;;;;;;;12659822;23;20212;-70
2022/04/24 23:27:49;;;;;;;11.93;8.50;;;;;;;;;;12659097;23;20184;-72
2022/04/24 23:32:50;;;;;;;8.77;7.45;;;;;;;;;;12658213;23;20200;-72
2022/04/24 23:37:51;;;;;;;15.90;8.90;;;;;;;;;;12659333;23;20227;-72
2022/04/24 23:42:52;;;;;;;13.88;8.88;;;;;;;;;;12659034;23;20204;-72
2022/04/24 23:47:53;;;;;;;10.98;8.57;;;;;;;;;;12656263;23;20172;-72
2022/04/24 23:52:54;;;;;;;15.35;7.72;;;;;;;;;;12655938;23;20248;-71
2022/04/24 23:57:55;;;;;;;13.10;7.47;;;;;;;;;;12657218;23;20766;-72
